Orbital elements of GONETS-M 19
| Launched | 27 September 2020 |
| Flight ended | – |
| Launch site | Plesetsk Missile and Space Complex, Russia |
| Owner | Commonwealth of Independent States (former USSR) |
| NORAD ID | 46488 |
| Date fetched |
Epoch osculation |
Inc. [°] |
Ecc. | RA asc node [hr] |
Arg Peri. [°] |
Mean anom [°] |
Mean motion [rev/day] |
Abs. mag |
| Date fetched |
Epoch osculation |
Inc. [°] |
Ecc. | RA asc node [hr] |
Arg Peri. [°] |
Mean anom [°] |
Mean motion [rev/day] |
Abs. mag |
| 2026 May 01 17:56 | 2026 May 01 11:02:54 | 82.5014 | 0.00137 | 1.0765 | 144.4074 | 215.7922 | 12.42891 | – |
| 2026 Apr 30 17:56 | 2026 Apr 30 06:04:10 | 82.5012 | 0.00137 | 1.1266 | 146.9633 | 215.7922 | 12.42891 | – |
| 2026 Apr 29 17:57 | 2026 Apr 29 12:40:56 | 82.5012 | 0.00136 | 1.1566 | 148.5263 | 215.7922 | 12.42891 | – |
| 2026 Apr 28 17:56 | 2026 Apr 28 11:34:02 | 82.5010 | 0.00136 | 1.2000 | 150.7636 | 215.7922 | 12.42891 | – |
| 2026 Apr 27 17:58 | 2026 Apr 27 12:23:03 | 82.5007 | 0.00135 | 1.2401 | 152.8357 | 215.7922 | 12.42891 | – |
| 2026 Apr 26 17:58 | 2026 Apr 26 13:12:03 | 82.5005 | 0.00135 | 1.2801 | 154.9272 | 215.7922 | 12.42891 | – |
| 2026 Apr 25 17:58 | 2026 Apr 25 12:05:09 | 82.5003 | 0.00134 | 1.3235 | 157.1694 | 215.7922 | 12.42891 | – |
| 2026 Apr 24 17:59 | 2026 Apr 24 12:54:10 | 82.5004 | 0.00134 | 1.3636 | 159.2421 | 215.7922 | 12.42891 | – |
| 2026 Apr 23 17:57 | 2026 Apr 23 05:59:31 | 82.5006 | 0.00133 | 1.4170 | 162.1101 | 215.7922 | 12.42891 | – |
| 2026 Apr 22 17:57 | 2026 Apr 22 06:48:32 | 82.5009 | 0.00133 | 1.4571 | 164.1596 | 215.7922 | 12.42891 | – |
| 2026 Apr 21 17:57 | 2026 Apr 21 11:29:22 | 82.5012 | 0.00132 | 1.4904 | 165.9587 | 215.7922 | 12.42891 | – |
| 2026 Apr 20 17:57 | 2026 Apr 20 12:18:23 | 82.5014 | 0.00132 | 1.5305 | 168.1442 | 215.7922 | 12.42891 | – |
| 2026 Apr 19 17:58 | 2026 Apr 19 13:07:24 | 82.5015 | 0.00132 | 1.5705 | 170.2462 | 215.7922 | 12.42891 | – |
| 2026 Apr 18 17:56 | 2026 Apr 18 06:12:45 | 82.5014 | 0.00131 | 1.6239 | 173.0490 | 215.7922 | 12.42891 | – |
| 2026 Apr 16 17:57 | 2026 Apr 16 05:54:51 | 82.5007 | 0.00130 | 1.7074 | 177.5380 | 215.7922 | 12.42891 | – |
| 2026 Apr 14 17:57 | 2026 Apr 14 13:20:38 | 82.5002 | 0.00130 | 1.7774 | 181.3623 | 215.7922 | 12.42891 | – |
| 2026 Apr 13 17:57 | 2026 Apr 13 06:25:59 | 82.4999 | 0.00129 | 1.8308 | 184.2216 | 215.7922 | 12.42891 | – |
| 2026 Apr 12 17:57 | 2026 Apr 12 13:02:44 | 82.4998 | 0.00129 | 1.8609 | 185.8801 | 215.7922 | 12.42891 | – |
| 2026 Apr 11 17:57 | 2026 Apr 11 11:55:50 | 82.4998 | 0.00129 | 1.9043 | 188.2387 | 215.7922 | 12.42891 | – |
| 2026 Apr 10 17:58 | 2026 Apr 10 06:57:06 | 82.4998 | 0.00128 | 1.9544 | 190.9528 | 215.7922 | 12.42891 | – |
| 2026 Apr 09 18:01 | 2026 Apr 09 05:50:12 | 82.4999 | 0.00128 | 1.9978 | 193.3607 | 215.7922 | 12.42891 | – |
| 2026 Apr 08 17:57 | 2026 Apr 08 06:39:12 | 82.5001 | 0.00127 | 2.0378 | 195.5668 | 215.7922 | 12.42891 | – |
| 2026 Apr 07 17:57 | 2026 Apr 07 05:32:18 | 82.5002 | 0.00127 | 2.0812 | 197.9559 | 215.7922 | 12.42891 | – |
| 2026 Apr 06 17:57 | 2026 Apr 06 06:21:19 | 82.5002 | 0.00127 | 2.1213 | 200.1633 | 215.7922 | 12.42891 | – |
| 2026 Apr 05 17:56 | 2026 Apr 05 12:58:04 | 82.5001 | 0.00126 | 2.1513 | 201.8501 | 215.7922 | 12.42891 | – |
| 2026 Apr 04 17:57 | 2026 Apr 04 06:03:25 | 82.4998 | 0.00126 | 2.2047 | 204.8139 | 215.7922 | 12.42891 | – |